North Utica, Illinois
Current Conditions -  °F | °C
As of 9:15 PM on Monday 20 Oct 2014 (Local Time) from KVYS Reporting Station
Clear Clear  
Wind Chill: 50°   Ceiling: Unl
Heat Index: 50°   Visibility: 10mi
Dew Point: 42°   Wind: 8mph
Humidity: 73%   Direction: 40°NE
Pressure: 30.01"   Gusts: NA
Location:  41.3954°N, 88.9927°W
Report Text: KVYS 210215Z AUTO 04007KT 10SM CLR 10/06 A3001 RMK AO2 T01020056
Loading
Personal Weather Stations






























Interactive Weather Map
Tropical Storm Tracking
New forecast layout! Learn more

10-Day Weather Forecast

Advertisements
Track Severe Weather on mobile